Time;durP1;ratioP1;P1;durP2;ratioP2;P2;SDS_P1;SDS_P2;PMS_P1;PMS_P2;Temp;Humidity;BMP_temperature;BMP_pressure;BME280_temperature;BME280_humidity;BME280_pressure;Samples;Min_cycle;Max_cycle;Signal;HPM_P1;HPM_P2
2022/08/21 00:01:53;;;;;;;75.82;40.72;;;;;;;22.40;31.50;100200.34;5092753;28;20052;-66
2022/08/21 00:04:20;;;;;;;80.35;43.22;;;;;;;22.21;31.84;100206.72;5075716;28;20075;-66
2022/08/21 00:06:46;;;;;;;81.72;42.78;;;;;;;22.19;31.75;100204.22;5075465;28;20129;-66
2022/08/21 00:09:11;;;;;;;74.68;40.40;;;;;;;22.11;31.84;100196.38;5093986;28;20509;-66
2022/08/21 00:11:38;;;;;;;71.13;41.33;;;;;;;22.30;31.59;100198.09;5075995;28;20131;-66
2022/08/21 00:14:05;;;;;;;83.53;42.03;;;;;;;22.23;31.86;100194.63;5093581;28;20040;-66
2022/08/21 00:16:31;;;;;;;73.72;42.47;;;;;;;22.23;31.64;100191.09;5058961;28;20432;-65
2022/08/21 00:18:57;;;;;;;76.07;40.58;;;;;;;22.22;31.88;100189.44;5093572;28;20040;-65
2022/08/21 00:21:23;;;;;;;79.50;40.67;;;;;;;22.13;31.91;100171.78;5092105;28;20182;-65
2022/08/21 00:23:49;;;;;;;80.05;42.00;;;;;;;22.18;31.64;100199.03;5092443;28;20088;-65
2022/08/21 00:26:15;;;;;;;78.68;42.50;;;;;;;21.92;31.89;100167.59;5092516;28;20552;-65
2022/08/21 00:28:40;;;;;;;78.78;42.45;;;;;;;21.98;31.83;100201.03;5093678;28;20055;-66
2022/08/21 00:31:06;;;;;;;85.93;42.70;;;;;;;21.91;32.09;100187.56;5093273;28;20044;-66
2022/08/21 00:33:33;;;;;;;76.30;44.13;;;;;;;21.93;32.07;100195.44;5093469;28;20048;-65
2022/08/21 00:35:59;;;;;;;80.78;43.17;;;;;;;21.77;32.27;100194.13;5093419;28;20055;-65
2022/08/21 00:38:24;;;;;;;82.53;44.60;;;;;;;21.78;32.34;100193.06;5093007;28;20044;-65
2022/08/21 00:40:54;;;;;;;80.30;44.47;;;;;;;21.68;32.35;100184.53;5091913;28;20047;-65
2022/08/21 00:43:27;;;;;;;81.43;43.33;;;;;;;21.62;32.63;100159.19;5091976;28;20048;-66
2022/08/21 00:45:53;;;;;;;77.43;44.20;;;;;;;21.84;32.18;100189.47;5075453;28;20493;-66
2022/08/21 00:48:19;;;;;;;83.93;43.45;;;;;;;21.60;32.82;100172.09;5075129;28;20402;-66
2022/08/21 00:51:07;;;;;;;79.40;43.08;;;;;;;21.92;32.09;100199.22;5074757;28;20040;-66
2022/08/21 00:53:36;;;;;;;84.55;43.42;;;;;;;21.66;32.46;100192.06;5075042;28;20055;-66
2022/08/21 00:56:03;;;;;;;92.13;43.60;;;;;;;21.32;33.15;100182.44;5091707;28;20040;-66
2022/08/21 00:58:30;;;;;;;90.35;44.22;;;;;;;21.44;33.06;100193.41;5091696;28;20447;-66
2022/08/21 01:00:57;;;;;;;80.18;44.75;;;;;;;21.48;32.98;100200.06;5091425;28;20483;-66
2022/08/21 01:03:25;;;;;;;82.50;43.67;;;;;;;21.32;33.04;100187.84;5090844;28;20097;-65
2022/08/21 01:05:51;;;;;;;74.53;43.88;;;;;;;21.43;32.97;100189.84;5074820;28;20135;-66
2022/08/21 01:08:18;;;;;;;80.95;42.08;;;;;;;21.44;33.14;100182.59;5092736;28;20242;-66
2022/08/21 01:10:44;;;;;;;82.05;44.50;;;;;;;21.33;33.26;100183.25;5091852;28;20513;-67
2022/08/21 01:13:12;;;;;;;81.13;42.88;;;;;;;21.45;33.03;100195.03;5093004;28;20077;-66
2022/08/21 01:15:40;;;;;;;89.30;45.58;;;;;;;21.41;33.09;100188.41;5091384;28;20055;-66
2022/08/21 01:18:08;;;;;;;89.05;43.80;;;;;;;21.40;32.98;100193.00;5074325;28;20066;-66
2022/08/21 01:20:35;;;;;;;93.80;44.97;;;;;;;21.43;33.18;100186.34;5091436;28;20044;-65
2022/08/21 01:23:02;;;;;;;73.78;41.28;;;;;;;21.40;33.22;100187.59;5092167;28;20043;-65
2022/08/21 01:25:28;;;;;;;88.00;43.72;;;;;;;21.30;32.93;100184.53;5091239;28;20043;-65
2022/08/21 01:27:54;;;;;;;88.95;44.30;;;;;;;21.30;33.15;100162.91;5092530;28;20486;-66
2022/08/21 01:30:23;;;;;;;94.90;43.28;;;;;;;21.38;33.01;100159.13;5092124;28;20543;-65
2022/08/21 01:32:49;;;;;;;92.63;43.85;;;;;;;21.33;33.38;100167.88;5073998;28;20044;-66
2022/08/21 01:35:16;;;;;;;89.32;43.00;;;;;;;21.03;33.30;100144.31;5091075;28;20040;-66
2022/08/21 01:37:43;;;;;;;91.85;42.70;;;;;;;21.16;33.52;100182.06;5092316;28;20090;-66
2022/08/21 01:40:10;;;;;;;87.00;41.08;;;;;;;21.14;33.60;100174.16;5091851;28;20065;-66
2022/08/21 01:42:39;;;;;;;81.95;41.13;;;;;;;21.12;33.58;100183.53;5091770;28;20036;-65
2022/08/21 01:45:06;;;;;;;90.90;43.63;;;;;;;21.07;33.88;100169.84;5091805;28;20501;-65
2022/08/21 01:47:32;;;;;;;85.28;43.63;;;;;;;20.58;34.03;100153.31;5091781;28;20555;-66
2022/08/21 01:49:58;;;;;;;81.35;39.40;;;;;;;21.11;33.61;100185.41;5091510;28;20036;-65
2022/08/21 01:52:24;;;;;;;88.60;41.35;;;;;;;20.89;33.81;100165.09;5090786;28;20122;-66
2022/08/21 01:54:50;;;;;;;77.38;41.35;;;;;;;21.07;33.66;100196.84;5073588;28;20138;-66
2022/08/21 01:57:15;;;;;;;72.97;40.08;;;;;;;20.76;34.01;100185.88;5091988;28;20115;-65
2022/08/21 01:59:41;;;;;;;82.50;40.78;;;;;;;20.92;34.00;100191.66;5090149;28;20047;-65
2022/08/21 02:02:07;;;;;;;83.43;40.85;;;;;;;20.58;34.50;100180.28;5073651;28;20044;-66
2022/08/21 02:04:33;;;;;;;77.70;38.88;;;;;;;20.98;33.93;100184.63;5073763;28;20044;-66
2022/08/21 02:07:00;;;;;;;71.07;38.05;;;;;;;21.07;34.00;100196.84;5091480;28;20386;-66
2022/08/21 02:09:25;;;;;;;70.72;38.53;;;;;;;20.89;34.09;100188.56;5091619;28;20514;-65
2022/08/21 02:11:51;;;;;;;82.63;40.30;;;;;;;20.75;34.49;100176.97;5073203;28;20044;-64
2022/08/21 02:14:17;;;;;;;69.05;36.97;;;;;;;20.94;34.22;100186.06;5073418;28;20051;-65
2022/08/21 02:16:44;;;;;;;70.95;38.35;;;;;;;20.99;34.02;100186.25;5091371;28;20047;-64
2022/08/21 02:19:11;;;;;;;83.47;39.08;;;;;;;21.02;34.22;100200.19;5089942;28;20044;-65
2022/08/21 02:21:37;;;;;;;66.45;36.58;;;;;;;20.84;34.16;100186.50;5073230;28;20428;-65
2022/08/21 02:24:04;;;;;;;75.80;35.05;;;;;;;20.98;34.24;100198.13;5091114;28;20051;-65
2022/08/21 02:26:30;;;;;;;76.65;37.97;;;;;;;20.83;34.16;100182.13;5073289;28;20493;-65
2022/08/21 02:28:56;;;;;;;77.55;36.58;;;;;;;20.99;33.84;100207.88;5091092;28;20040;-65
2022/08/21 02:31:22;;;;;;;66.97;36.38;;;;;;;20.71;34.43;100201.88;5089690;28;20048;-66
2022/08/21 02:33:47;;;;;;;65.60;35.38;;;;;;;20.85;nan;100198.13;5089987;28;20394;-66
2022/08/21 02:36:13;;;;;;;65.40;34.20;;;;;;;20.94;34.37;100204.97;5089592;28;20048;-65
2022/08/21 02:38:41;;;;;;;69.45;35.20;;;;;;;20.84;34.24;100199.16;5089641;28;20047;-65
2022/08/21 02:41:09;;;;;;;63.80;32.40;;;;;;;20.72;34.33;100203.53;5089488;28;20071;-65
2022/08/21 02:43:35;;;;;;;67.55;35.05;;;;;;;20.70;34.49;100205.59;5090646;28;20063;-65
2022/08/21 02:46:02;;;;;;;70.28;33.88;;;;;;;20.85;34.41;100207.03;5072859;28;20070;-64
2022/08/21 02:48:31;;;;;;;56.88;33.20;;;;;;;20.91;34.38;100197.28;5089510;28;20052;-66
2022/08/21 02:51:05;;;;;;;60.88;33.03;;;;;;;20.91;34.25;100189.19;5090567;28;20075;-65
2022/08/21 02:53:31;;;;;;;62.85;31.60;;;;;;;20.91;34.40;100199.97;5072681;28;20086;-65
2022/08/21 02:55:59;;;;;;;57.15;32.03;;;;;;;20.67;34.37;100212.25;5089890;28;20087;-65
2022/08/21 02:58:28;;;;;;;63.03;32.42;;;;;;;20.78;34.58;100208.94;5091710;28;20044;-67
2022/08/21 03:00:54;;;;;;;54.92;30.42;;;;;;;20.71;34.42;100210.78;5090541;28;20047;-67
2022/08/21 03:03:20;;;;;;;60.60;30.50;;;;;;;20.78;34.18;100208.94;5090558;28;20400;-67
2022/08/21 03:05:47;;;;;;;58.42;31.30;;;;;;;21.16;33.84;100214.47;5073017;28;20498;-67
2022/08/21 03:08:16;;;;;;;56.63;31.83;;;;;;;21.44;33.47;100206.91;5089343;28;20126;-68
2022/08/21 03:10:50;;;;;;;52.10;29.67;;;;;;;21.60;32.96;100206.44;5089295;28;20411;-68
2022/08/21 03:13:20;;;;;;;55.47;30.67;;;;;;;22.02;32.43;100213.09;5090759;28;20040;-68
2022/08/21 03:15:48;;;;;;;52.95;30.10;;;;;;;22.26;32.12;100202.31;5089569;28;20101;-67
2022/08/21 03:18:15;;;;;;;59.47;31.17;;;;;;;22.32;31.87;100206.84;5072305;28;20400;-68
2022/08/21 03:20:42;;;;;;;56.25;29.77;;;;;;;22.46;31.24;100192.16;5072093;28;20188;-68
2022/08/21 03:23:08;;;;;;;54.47;30.60;;;;;;;22.61;30.92;100191.84;5089578;28;20124;-68
2022/08/21 03:25:35;;;;;;;73.22;31.52;;;;;;;22.65;31.06;100220.97;5074755;28;20044;-68
2022/08/21 03:28:02;;;;;;;64.20;28.95;;;;;;;22.67;31.11;100221.56;5076892;28;20044;-67
2022/08/21 03:30:31;;;;;;;65.55;30.15;;;;;;;22.67;30.83;100208.03;5079174;28;20084;-67
2022/08/21 03:32:58;;;;;;;54.60;28.77;;;;;;;22.85;30.83;100218.06;5076718;28;20060;-67
2022/08/21 03:35:25;;;;;;;75.15;31.77;;;;;;;22.62;30.69;100218.69;5093131;28;20126;-66
2022/08/21 03:37:53;;;;;;;59.72;29.95;;;;;;;22.26;31.57;100220.44;5094624;28;20531;-68
2022/08/21 03:40:20;;;;;;;53.58;27.05;;;;;;;22.45;30.79;100203.22;5093278;28;20040;-67
2022/08/21 03:42:46;;;;;;;56.88;28.85;;;;;;;22.55;31.19;100208.97;5092754;28;20044;-66
2022/08/21 03:45:14;;;;;;;60.03;29.17;;;;;;;22.89;30.68;100235.53;5091357;28;20238;-66
2022/08/21 03:47:52;;;;;;;62.45;29.48;;;;;;;22.84;30.39;100186.63;5091729;28;20047;-66
2022/08/21 03:50:17;;;;;;;60.00;29.27;;;;;;;22.68;30.79;100217.00;5090439;28;20059;-66
2022/08/21 03:52:51;;;;;;;53.83;27.98;;;;;;;22.93;30.29;100217.78;5092177;28;20080;-66
2022/08/21 03:55:18;;;;;;;56.78;30.13;;;;;;;23.32;29.73;100227.41;5090712;28;20422;-67
2022/08/21 03:57:43;;;;;;;54.83;28.75;;;;;;;23.11;30.19;100228.66;5091646;28;20088;-66
2022/08/21 04:00:11;;;;;;;63.45;30.02;;;;;;;23.26;29.96;100219.13;5074504;28;20048;-66
2022/08/21 04:02:38;;;;;;;59.97;30.02;;;;;;;23.39;29.79;100218.13;5093589;28;20051;-66
2022/08/21 04:05:05;;;;;;;56.38;28.63;;;;;;;23.17;29.66;100217.72;5093672;28;20179;-66
2022/08/21 04:07:31;;;;;;;53.58;28.38;;;;;;;23.28;29.44;100233.28;5091965;28;20565;-66
2022/08/21 04:09:56;;;;;;;51.22;27.52;;;;;;;22.87;30.39;100222.22;5093447;28;20131;-66
2022/08/21 04:12:23;;;;;;;49.95;26.13;;;;;;;23.12;29.61;100243.84;5075616;28;20108;-66
2022/08/21 04:14:51;;;;;;;55.22;29.58;;;;;;;22.73;30.98;100225.25;5092270;28;20442;-66
2022/08/21 04:17:17;;;;;;;56.78;28.73;;;;;;;22.92;30.23;100227.81;5091948;28;20036;-66
2022/08/21 04:19:44;;;;;;;53.80;29.15;;;;;;;23.14;29.95;100231.72;5093123;28;20497;-66
2022/08/21 04:22:10;;;;;;;60.42;29.55;;;;;;;23.45;29.84;100225.38;5093519;28;20040;-66
2022/08/21 04:24:36;;;;;;;58.58;30.60;;;;;;;23.69;29.08;100229.03;5091810;28;20448;-65
2022/08/21 04:27:01;;;;;;;56.42;29.58;;;;;;;23.78;29.03;100217.66;5058258;28;20523;-65
2022/08/21 04:29:27;;;;;;;59.60;30.67;;;;;;;23.63;29.17;100210.97;5091883;28;20094;-66
2022/08/21 04:31:53;;;;;;;54.92;30.35;;;;;;;23.78;29.32;100224.94;5092121;28;20131;-66
2022/08/21 04:34:18;;;;;;;61.38;31.20;;;;;;;23.76;28.95;100198.06;5092045;28;20044;-66
2022/08/21 04:36:44;;;;;;;54.75;29.58;;;;;;;23.98;28.70;100229.09;5090861;28;20051;-66
2022/08/21 04:39:10;;;;;;;61.92;31.80;;;;;;;23.97;28.80;100232.03;5091862;28;20127;-66
2022/08/21 04:41:36;;;;;;;60.65;32.45;;;;;;;23.87;28.84;100227.13;5091905;28;20051;-66
2022/08/21 04:44:02;;;;;;;62.20;33.88;;;;;;;23.86;28.84;100221.94;5074378;28;20036;-66
2022/08/21 04:46:28;;;;;;;62.33;33.42;;;;;;;24.11;28.71;100234.31;5057858;28;20044;-66
2022/08/21 04:48:54;;;;;;;67.55;34.25;;;;;;;23.98;29.03;100242.66;5093014;28;20039;-66
2022/08/21 04:51:33;;;;;;;74.25;35.13;;;;;;;24.42;28.86;100234.06;5074782;28;20050;-66
2022/08/21 04:54:19;;;;;;;70.25;33.75;;;;;;;24.45;28.16;100238.19;5074660;28;20050;-66
2022/08/21 04:56:51;;;;;;;73.78;34.55;;;;;;;24.39;28.87;100239.13;5091240;28;20051;-66
2022/08/21 04:59:23;;;;;;;75.25;35.60;;;;;;;24.31;28.57;100232.13;5092609;28;20059;-66
2022/08/21 05:01:49;;;;;;;55.75;32.13;;;;;;;24.21;27.94;100244.63;5092218;28;20069;-66
2022/08/21 05:04:18;;;;;;;67.15;36.00;;;;;;;23.73;29.49;100246.50;5074210;28;20541;-66
2022/08/21 05:06:46;;;;;;;59.55;33.95;;;;;;;24.25;28.65;100243.09;5074208;28;20155;-66
2022/08/21 05:09:17;;;;;;;56.97;32.38;;;;;;;24.41;28.02;100245.16;5057571;28;20130;-66
2022/08/21 05:11:43;;;;;;;56.25;34.00;;;;;;;24.41;27.75;100242.44;5074487;28;20381;-67
2022/08/21 05:14:11;;;;;;;64.47;34.10;;;;;;;24.67;27.81;100248.31;5091343;28;20063;-67
2022/08/21 05:16:36;;;;;;;58.47;33.28;;;;;;;24.58;27.54;100236.09;5092389;28;20036;-66
2022/08/21 05:19:02;;;;;;;60.03;33.22;;;;;;;24.74;27.66;100245.47;5073874;28;20089;-66
2022/08/21 05:21:28;;;;;;;59.00;33.13;;;;;;;24.92;27.50;100230.94;5091197;28;20052;-67
2022/08/21 05:23:53;;;;;;;56.15;32.80;;;;;;;24.75;27.43;100218.09;5091580;28;20132;-66
2022/08/21 05:26:19;;;;;;;49.58;31.67;;;;;;;24.84;27.07;100213.09;5074129;28;20071;-66
2022/08/21 05:28:48;;;;;;;58.30;30.65;;;;;;;24.91;26.45;100226.59;5073990;28;20044;-66
2022/08/21 05:31:13;;;;;;;52.58;31.48;;;;;;;25.06;26.72;100229.66;5057439;28;20040;-66
2022/08/21 05:33:39;;;;;;;58.58;31.25;;;;;;;25.27;26.22;100216.25;5073936;28;20052;-66
2022/08/21 05:36:05;;;;;;;47.15;30.13;;;;;;;25.49;26.02;100233.66;5092531;28;20043;-66
2022/08/21 05:38:33;;;;;;;52.78;30.27;;;;;;;25.57;25.81;100222.34;5092432;28;20498;-68
2022/08/21 05:40:59;;;;;;;60.97;30.25;;;;;;;26.10;25.56;100241.13;5091120;28;20067;-68
2022/08/21 05:43:24;;;;;;;55.80;32.25;;;;;;;26.21;24.98;100254.72;5091075;28;20461;-66
2022/08/21 05:45:50;;;;;;;47.85;28.13;;;;;;;26.16;24.93;100234.72;5057103;28;20040;-66
2022/08/21 05:48:19;;;;;;;50.72;29.15;;;;;;;26.52;24.29;100245.97;5090421;28;20047;-66
2022/08/21 05:50:47;;;;;;;54.40;29.52;;;;;;;26.59;24.18;100232.19;5090676;28;20051;-66
2022/08/21 05:53:14;;;;;;;46.88;27.27;;;;;;;26.55;23.62;100246.56;5091847;28;20044;-67
2022/08/21 05:55:40;;;;;;;48.90;29.35;;;;;;;26.36;24.17;100207.84;5090366;28;20047;-67
2022/08/21 05:58:06;;;;;;;47.70;28.33;;;;;;;26.69;23.72;100229.69;5073949;28;20134;-67
2022/08/21 06:00:33;;;;;;;46.53;27.67;;;;;;;26.90;23.31;100239.81;5092058;28;20533;-67
2022/08/21 06:02:58;;;;;;;51.65;27.55;;;;;;;26.88;23.26;100238.44;5090842;28;20122;-67
2022/08/21 06:05:24;;;;;;;41.72;26.58;;;;;;;27.08;22.97;100238.72;5090616;28;20138;-67
2022/08/21 06:07:51;;;;;;;44.80;26.58;;;;;;;27.21;22.77;100227.47;5090867;28;20048;-67
2022/08/21 06:10:16;;;;;;;45.70;27.13;;;;;;;27.42;22.44;100230.25;5073728;28;20050;-67
2022/08/21 06:12:42;;;;;;;49.53;27.75;;;;;;;27.73;22.40;100223.25;5091859;28;20044;-67
2022/08/21 06:15:08;;;;;;;53.83;27.50;;;;;;;28.07;21.99;100227.50;5073557;28;20044;-67
2022/08/21 06:17:34;;;;;;;44.25;28.10;;;;;;;28.30;21.63;100238.09;5090385;28;20051;-67
2022/08/21 06:20:00;;;;;;;48.75;27.38;;;;;;;28.38;21.78;100226.72;5090491;28;20036;-67
2022/08/21 06:22:25;;;;;;;48.63;27.70;;;;;;;27.99;21.41;100233.41;5091622;28;20467;-67
2022/08/21 06:24:51;;;;;;;51.53;27.27;;;;;;;28.10;21.46;100228.88;5090493;28;20035;-67
2022/08/21 06:27:17;;;;;;;50.70;28.08;;;;;;;28.24;21.87;100233.66;5091606;28;20036;-67
2022/08/21 06:29:44;;;;;;;48.80;28.02;;;;;;;28.48;21.46;100232.28;5090096;28;20054;-67
2022/08/21 06:32:13;;;;;;;47.75;27.95;;;;;;;28.25;21.76;100232.56;5073084;28;20039;-67
2022/08/21 06:34:40;;;;;;;46.08;30.08;;;;;;;27.69;22.23;100244.75;5090137;28;20147;-67
2022/08/21 06:37:06;;;;;;;59.47;29.45;;;;;;;27.42;22.28;100224.78;5091116;28;20135;-67
2022/08/21 06:39:32;;;;;;;50.28;29.80;;;;;;;27.55;22.20;100207.22;5090074;28;20075;-67
2022/08/21 06:41:57;;;;;;;53.30;29.38;;;;;;;28.35;21.89;100218.19;5091426;28;20075;-68
2022/08/21 06:44:27;;;;;;;56.75;28.10;;;;;;;28.83;21.47;100216.16;5089847;28;20043;-67
2022/08/21 06:46:53;;;;;;;51.20;27.88;;;;;;;29.11;20.56;100206.78;5089682;28;20040;-67
2022/08/21 06:49:18;;;;;;;46.13;27.65;;;;;;;29.63;20.09;100220.47;5089715;28;20036;-67
2022/08/21 06:51:44;;;;;;;48.53;28.00;;;;;;;29.92;19.94;100217.03;5089746;28;20051;-66
2022/08/21 06:54:10;;;;;;;49.15;28.50;;;;;;;30.16;19.56;100204.47;5089668;28;20040;-67
2022/08/21 06:56:37;;;;;;;48.15;29.50;;;;;;;30.67;19.54;100214.41;5056151;28;20554;-67
2022/08/21 06:59:05;;;;;;;46.00;27.20;;;;;;;30.71;18.55;100223.72;5072645;28;20089;-67
2022/08/21 07:01:31;;;;;;;53.95;28.40;;;;;;;30.77;19.15;100202.59;5090783;28;20050;-66
2022/08/21 07:03:57;;;;;;;39.75;24.50;;;;;;;30.65;18.77;100202.03;5090632;28;20135;-66
2022/08/21 07:06:23;;;;;;;39.70;24.17;;;;;;;29.97;19.26;100200.59;5072492;28;20148;-67
2022/08/21 07:08:48;;;;;;;42.20;24.60;;;;;;;30.19;19.08;100192.97;5089315;28;20042;-67
2022/08/21 07:11:19;;;;;;;49.83;24.67;;;;;;;30.33;18.61;100202.34;5090418;28;20500;-70
2022/08/21 07:13:44;;;;;;;;;;;;;;;30.70;18.40;100202.88;5090932;28;20052;-68
2022/08/21 07:16:10;;;;;;;45.00;23.15;;;;;;;30.86;18.14;100179.03;5088971;28;19943;-68
2022/08/21 07:18:36;;;;;;;45.38;23.63;;;;;;;31.68;17.21;100195.78;5090664;28;20414;-68
2022/08/21 07:21:07;;;;;;;42.60;23.13;;;;;;;31.71;17.21;100183.38;5090763;28;20055;-68
2022/08/21 07:23:33;;;;;;;;;;;;;;;32.36;16.59;100199.53;5073184;28;20057;-68
2022/08/21 07:26:06;;;;;;;32.63;20.48;;;;;;;32.72;15.66;100185.16;5090427;28;19920;-67
2022/08/21 07:28:35;;;;;;;35.15;19.52;;;;;;;33.56;15.41;100195.56;5074258;28;20043;-66
2022/08/21 07:31:01;;;;;;;35.72;20.23;;;;;;;34.06;14.73;100199.56;5089302;28;20135;-67
2022/08/21 07:33:29;;;;;;;40.95;19.67;;;;;;;34.65;14.46;100205.28;5089319;28;20167;-67
2022/08/21 07:35:55;;;;;;;34.35;19.30;;;;;;;34.82;13.20;100212.97;5072175;28;20047;-67
2022/08/21 07:38:21;;;;;;;31.52;16.35;;;;;;;34.61;13.39;100226.31;5090413;28;20040;-67
2022/08/21 07:40:48;;;;;;;24.55;15.40;;;;;;;34.90;12.88;100196.56;5089124;28;20402;-67
2022/08/21 07:43:16;;;;;;;23.40;14.75;;;;;;;36.14;11.98;100197.03;5089079;28;20097;-67
2022/08/21 07:45:42;;;;;;;32.00;15.55;;;;;;;37.11;11.50;100194.28;5072198;28;20048;-67
2022/08/21 07:48:08;;;;;;;33.90;16.73;;;;;;;39.02;10.18;100191.06;5090219;28;20110;-67
2022/08/21 07:50:33;;;;;;;26.30;16.05;;;;;;;40.52;9.25;100187.97;5055594;28;20113;-67
2022/08/21 07:52:59;;;;;;;32.65;16.05;;;;;;;40.90;9.16;100177.44;5088663;28;20042;-68
2022/08/21 07:55:25;;;;;;;33.17;15.40;;;;;;;42.31;8.09;100180.03;5090161;28;20047;-67
2022/08/21 07:57:50;;;;;;;34.53;15.63;;;;;;;43.73;7.46;100183.41;5072103;28;20409;-67
2022/08/21 08:00:22;;;;;;;28.15;14.85;;;;;;;42.10;7.62;100159.03;5088764;28;20497;-67
2022/08/21 08:02:49;;;;;;;24.30;14.15;;;;;;;41.99;7.91;100146.75;5088950;28;20047;-66
2022/08/21 08:05:16;;;;;;;20.63;13.43;;;;;;;41.70;7.77;100164.59;5090009;28;20425;-67
2022/08/21 08:07:42;;;;;;;21.63;13.98;;;;;;;42.08;7.54;100155.78;5071912;28;20052;-68
2022/08/21 08:10:08;;;;;;;24.90;14.15;;;;;;;42.60;7.49;100142.50;5090110;28;20048;-69
2022/08/21 08:12:35;;;;;;;21.52;13.77;;;;;;;43.67;7.10;100145.69;5093927;28;20497;-68
2022/08/21 08:15:01;;;;;;;25.00;14.82;;;;;;;44.99;6.32;100161.97;5093811;28;20036;-68
2022/08/21 08:17:29;;;;;;;23.50;14.57;;;;;;;45.51;5.97;100142.44;5076059;28;20051;-67
2022/08/21 08:19:55;;;;;;;22.83;13.75;;;;;;;45.96;5.61;100156.34;5093918;28;20036;-68
2022/08/21 08:22:23;;;;;;;33.58;13.80;;;;;;;44.96;5.81;100143.91;5092783;28;20121;-68
2022/08/21 08:24:50;;;;;;;29.48;13.43;;;;;;;45.54;5.66;100142.50;5092512;28;20032;-67
2022/08/21 08:27:17;;;;;;;20.75;11.45;;;;;;;45.62;5.10;100146.19;5093560;28;20516;-68
2022/08/21 08:29:44;;;;;;;24.38;11.52;;;;;;;44.67;5.49;100162.22;5092491;28;20047;-68
2022/08/21 08:32:13;;;;;;;17.40;11.77;;;;;;;43.10;6.00;100151.09;5058784;28;20138;-68
2022/08/21 08:34:39;;;;;;;21.40;11.68;;;;;;;43.19;6.47;100135.75;5093474;28;20040;-69
2022/08/21 08:37:07;;;;;;;27.02;14.88;;;;;;;45.09;5.87;100139.75;5092576;28;20040;-68
2022/08/21 08:39:33;;;;;;;25.80;14.10;;;;;;;46.91;5.25;100129.31;5092084;28;20051;-67
2022/08/21 08:42:06;;;;;;;26.27;14.30;;;;;;;48.64;4.29;100134.75;5093129;28;20417;-68
2022/08/21 08:44:33;;;;;;;22.20;12.70;;;;;;;47.60;4.25;100125.44;5093181;28;20059;-67
2022/08/21 08:46:59;;;;;;;20.92;11.57;;;;;;;46.72;4.70;100130.31;5093146;28;20046;-67
2022/08/21 08:49:55;;;;;;;24.58;11.80;;;;;;;45.21;4.99;100116.31;5058367;28;20040;-67
2022/08/21 08:52:35;;;;;;;16.88;10.57;;;;;;;42.60;6.23;100118.19;5091986;28;20051;-67
2022/08/21 08:55:09;;;;;;;24.00;10.32;;;;;;;40.33;7.52;100112.50;5074641;28;20078;-67
2022/08/21 08:57:37;;;;;;;23.00;10.35;;;;;;;37.93;9.27;100136.16;5092069;28;20044;-68
2022/08/21 09:00:10;;;;;;;31.35;11.20;;;;;;;36.64;10.05;100120.25;5092922;28;20104;-66
2022/08/21 09:02:39;;;;;;;23.38;10.23;;;;;;;36.84;10.16;100130.78;5093209;28;20425;-67
2022/08/21 09:05:06;;;;;;;18.58;9.65;;;;;;;36.00;10.67;100140.94;5091681;28;20122;-66
2022/08/21 09:07:56;;;;;;;22.75;9.07;;;;;;;35.50;11.14;100129.09;5092718;28;20055;-66
2022/08/21 09:10:31;;;;;;;15.40;8.80;;;;;;;34.64;11.30;100114.50;5092593;28;20123;-68
2022/08/21 09:13:09;;;;;;;23.48;8.43;;;;;;;35.93;10.91;100123.13;5091516;28;20079;-65
2022/08/21 09:15:57;;;;;;;18.88;8.75;;;;;;;36.04;10.52;100153.03;5091366;28;20047;-66
2022/08/21 09:18:41;;;;;;;16.05;8.40;;;;;;;36.65;10.32;100130.16;5092620;28;20043;-66
2022/08/21 09:21:09;;;;;;;19.42;7.97;;;;;;;37.17;9.72;100154.22;5092690;28;20048;-66
2022/08/21 09:23:41;;;;;;;18.77;7.93;;;;;;;36.87;10.19;100119.88;5092150;28;20056;-66
2022/08/21 09:26:19;;;;;;;18.10;8.10;;;;;;;37.55;10.28;100127.59;5092882;28;20052;-66
2022/08/21 09:28:47;;;;;;;20.08;7.50;;;;;;;37.69;9.81;100130.28;5092573;28;20101;-66
2022/08/21 09:31:26;;;;;;;18.27;6.97;;;;;;;37.55;9.26;100122.06;5091482;28;20055;-66
2022/08/21 09:34:07;;;;;;;28.45;6.07;;;;;;;36.32;9.79;100120.56;5092847;28;20036;-66
2022/08/21 09:36:48;;;;;;;15.52;5.30;;;;;;;34.30;10.99;100134.13;5074537;28;20044;-66
2022/08/21 09:39:27;;;;;;;12.43;5.45;;;;;;;33.49;12.28;100114.41;5092858;28;20046;-67
2022/08/21 09:42:02;;;;;;;14.68;6.10;;;;;;;33.04;12.91;100129.56;5091401;28;20047;-67
2022/08/21 09:44:31;;;;;;;19.52;6.80;;;;;;;32.65;13.64;100107.66;5090964;28;20051;-66
2022/08/21 09:46:57;;;;;;;15.75;5.97;;;;;;;32.18;13.89;100106.72;5074101;28;20044;-66
2022/08/21 09:49:30;;;;;;;19.80;5.85;;;;;;;32.15;13.90;100119.09;5092214;28;20066;-66
2022/08/21 09:51:58;;;;;;;19.75;6.40;;;;;;;31.68;14.54;100126.25;5092196;28;20063;-67
2022/08/21 09:54:31;;;;;;;18.40;6.57;;;;;;;32.12;14.46;100119.66;5092531;28;20066;-67
2022/08/21 09:59:45;;;;;;;13.77;5.25;;;;;;;32.82;13.16;100100.84;5091972;28;20097;-67
2022/08/21 10:02:32;;;;;;;16.48;5.15;;;;;;;33.16;13.18;100126.38;5057231;28;20044;-66
2022/08/21 10:05:04;;;;;;;11.98;4.43;;;;;;;32.39;13.61;100130.19;5090266;28;20501;-66
2022/08/21 10:07:32;;;;;;;10.15;3.38;;;;;;;31.32;14.42;100130.31;5090549;28;20075;-66
2022/08/21 10:10:03;;;;;;;13.02;3.80;;;;;;;30.65;14.95;100120.59;5090849;28;20135;-65
2022/08/21 10:12:45;;;;;;;12.70;3.15;;;;;;;30.90;15.07;100142.53;5091797;28;20051;-65
2022/08/21 10:15:39;;;;;;;12.07;3.00;;;;;;;30.85;15.29;100111.53;5090596;28;20504;-66
2022/08/21 10:18:16;;;;;;;8.68;3.00;;;;;;;30.81;15.31;100116.78;5056744;28;20127;-66
2022/08/21 10:20:53;;;;;;;9.10;3.67;;;;;;;31.00;15.19;100112.28;5090530;28;20046;-66
2022/08/21 10:23:50;;;;;;;14.07;3.25;;;;;;;31.07;15.32;100112.00;5090013;28;20059;-66
2022/08/21 10:26:32;;;;;;;8.25;3.17;;;;;;;30.60;15.89;100117.06;5090039;28;20047;-67
2022/08/21 10:29:22;;;;;;;17.75;4.03;;;;;;;30.91;15.74;100097.53;5072766;28;20036;-67
2022/08/21 10:32:05;;;;;;;6.93;3.30;;;;;;;31.19;15.78;100104.25;5091360;28;20189;-66
2022/08/21 10:34:37;;;;;;;14.02;4.00;;;;;;;31.38;15.78;100094.34;5089082;28;20059;-66
2022/08/21 10:37:21;;;;;;;16.95;3.50;;;;;;;31.17;15.59;100097.44;5089957;28;20047;-66
2022/08/21 10:40:12;;;;;;;12.25;2.53;;;;;;;31.25;15.15;100059.22;5090273;28;20512;-67
2022/08/21 10:42:51;;;;;;;4.50;2.30;;;;;;;31.14;14.45;100085.91;5090003;28;20052;-66
2022/08/21 10:45:31;;;;;;;15.10;2.63;;;;;;;31.21;14.68;100085.59;5073152;28;20071;-68
2022/08/21 10:48:03;;;;;;;9.98;2.60;;;;;;;31.06;14.87;100056.28;5089997;28;20097;-66
2022/08/21 10:50:35;;;;;;;8.32;2.50;;;;;;;31.64;14.64;100065.59;5073072;28;20083;-66
2022/08/21 10:53:06;;;;;;;11.35;2.40;;;;;;;31.73;14.36;100074.06;5072841;28;20048;-67
2022/08/21 10:55:44;;;;;;;9.63;2.33;;;;;;;32.00;14.49;100069.75;5072716;28;20083;-67
2022/08/21 10:58:18;;;;;;;11.55;2.88;;;;;;;32.54;13.93;100075.03;5073066;28;20215;-66
2022/08/21 11:00:47;;;;;;;6.57;2.22;;;;;;;32.97;13.65;100063.00;5089747;28;20551;-65
2022/08/21 11:03:37;;;;;;;9.13;2.13;;;;;;;33.27;13.13;100084.66;5055866;28;20728;-65
2022/08/21 11:06:28;;;;;;;13.40;2.22;;;;;;;32.72;13.29;100086.09;5072589;28;20052;-66
2022/08/21 11:09:14;;;;;;;7.05;2.45;;;;;;;33.02;13.34;100075.88;5072660;28;20032;-66
2022/08/21 11:11:52;;;;;;;10.88;2.28;;;;;;;32.73;13.33;100064.94;5072347;28;20052;-66
2022/08/21 11:14:45;;;;;;;11.77;2.08;;;;;;;33.26;13.63;100084.94;5089292;28;20060;-66
2022/08/21 11:17:14;;;;;;;7.25;2.00;;;;;;;33.33;13.25;100099.16;5088754;28;20082;-65
2022/08/21 11:19:52;;;;;;;9.27;2.80;;;;;;;32.77;13.49;100087.19;5090518;28;20094;-66
2022/08/21 11:22:54;;;;;;;10.65;2.33;;;;;;;32.33;14.17;100095.56;5089462;28;20052;-65
2022/08/21 11:25:40;;;;;;;9.55;2.50;;;;;;;32.57;14.15;100088.19;5069346;28;20051;-66